createdAt,value
2023-02-13T00:01:15.224Z,8.35
2023-02-13T00:03:43.510Z,5.95
2023-02-13T00:06:13.186Z,7.00
2023-02-13T00:08:41.500Z,10.95
2023-02-13T00:11:09.760Z,9.73
2023-02-13T00:13:39.346Z,9.02
2023-02-13T00:16:07.974Z,9.68
2023-02-13T00:18:38.049Z,11.05
2023-02-13T00:21:08.797Z,11.75
2023-02-13T00:23:38.455Z,15.13
2023-02-13T00:26:09.287Z,13.18
2023-02-13T00:28:40.699Z,11.38
2023-02-13T00:31:11.054Z,12.98
2023-02-13T00:33:39.674Z,13.77
2023-02-13T00:36:09.755Z,13.43
2023-02-13T00:38:39.336Z,15.68
2023-02-13T00:41:07.909Z,14.05
2023-02-13T00:43:36.276Z,16.67
2023-02-13T00:46:06.461Z,15.85
2023-02-13T00:48:35.857Z,51.10
2023-02-13T00:51:04.766Z,24.05
2023-02-13T00:53:33.205Z,18.77
2023-02-13T00:56:01.684Z,15.18
2023-02-13T00:58:30.287Z,16.55
2023-02-13T01:00:58.833Z,16.65
2023-02-13T01:03:29.080Z,16.00
2023-02-13T01:05:58.218Z,16.67
2023-02-13T01:08:28.313Z,22.05
2023-02-13T01:10:57.598Z,27.42
2023-02-13T01:13:26.223Z,17.42
2023-02-13T01:15:54.627Z,14.77
2023-02-13T01:18:22.839Z,26.02
2023-02-13T01:21:00.590Z,20.70
2023-02-13T01:23:32.375Z,17.80
2023-02-13T01:26:00.912Z,15.45
2023-02-13T01:28:29.561Z,15.52
2023-02-13T01:30:59.339Z,15.65
2023-02-13T01:33:29.220Z,15.90
2023-02-13T01:36:00.323Z,14.23
2023-02-13T01:38:28.644Z,13.35
2023-02-13T01:40:57.167Z,13.55
2023-02-13T01:43:26.191Z,15.23
2023-02-13T01:45:57.559Z,15.35
2023-02-13T01:48:29.012Z,14.52
2023-02-13T01:51:05.119Z,13.20
2023-02-13T01:53:36.892Z,14.10
2023-02-13T01:56:13.165Z,12.75
2023-02-13T01:58:44.817Z,11.32
2023-02-13T02:01:13.534Z,11.73
2023-02-13T02:03:45.787Z,11.60
2023-02-13T02:06:19.976Z,10.82
2023-02-13T02:08:51.454Z,10.65
2023-02-13T02:11:31.885Z,9.68
2023-02-13T02:14:00.309Z,12.20
2023-02-13T02:16:28.567Z,11.05
2023-02-13T02:18:57.208Z,10.48
2023-02-13T02:21:57.428Z,12.30
2023-02-13T02:24:55.817Z,10.80
2023-02-13T02:27:56.457Z,10.57
2023-02-13T02:31:00.862Z,9.48
2023-02-13T02:33:42.528Z,10.80
2023-02-13T02:36:24.295Z,11.02
2023-02-13T02:39:09.409Z,10.35
2023-02-13T02:41:52.208Z,12.10
2023-02-13T02:44:34.841Z,12.07
2023-02-13T02:47:32.419Z,11.47
2023-02-13T02:50:25.020Z,11.10
2023-02-13T02:53:14.019Z,10.55
2023-02-13T02:55:48.789Z,10.00
2023-02-13T02:58:40.020Z,10.90
2023-02-13T03:01:30.211Z,10.57
2023-02-13T03:04:17.336Z,10.13
2023-02-13T03:06:51.469Z,10.82
2023-02-13T03:09:41.907Z,12.05
2023-02-13T03:12:28.413Z,11.10
2023-02-13T03:14:56.889Z,13.63
2023-02-13T03:17:42.608Z,12.77
2023-02-13T03:20:47.910Z,12.85
2023-02-13T03:23:20.814Z,13.02
2023-02-13T03:26:06.979Z,13.63
2023-02-13T03:28:59.541Z,12.73
2023-02-13T03:31:35.450Z,11.57
2023-02-13T03:34:06.978Z,14.02
2023-02-13T03:37:02.427Z,12.43
2023-02-13T03:39:45.868Z,13.43
2023-02-13T03:42:22.160Z,12.35
2023-02-13T03:45:10.159Z,12.57
2023-02-13T03:47:39.761Z,14.43
2023-02-13T03:50:10.052Z,13.68
2023-02-13T03:52:44.402Z,12.40
2023-02-13T03:55:34.029Z,13.18
2023-02-13T03:58:23.654Z,13.05
2023-02-13T04:00:56.924Z,12.63
2023-02-13T04:03:30.140Z,16.23
2023-02-13T04:06:05.378Z,14.45
2023-02-13T04:08:33.598Z,12.88
2023-02-13T04:11:09.431Z,12.50
2023-02-13T04:13:44.774Z,13.15
2023-02-13T04:16:18.492Z,14.00
2023-02-13T04:18:48.031Z,13.52
2023-02-13T04:21:16.247Z,13.35
2023-02-13T04:23:44.530Z,13.63
2023-02-13T04:26:19.923Z,13.18
2023-02-13T04:28:48.591Z,14.40
2023-02-13T04:31:17.041Z,13.80
2023-02-13T04:33:45.282Z,14.90
2023-02-13T04:36:16.324Z,14.23
2023-02-13T04:38:45.419Z,14.77
2023-02-13T04:41:15.049Z,12.90
2023-02-13T04:43:43.278Z,14.95
2023-02-13T04:46:11.512Z,16.25
2023-02-13T04:48:39.753Z,14.43
2023-02-13T04:51:08.097Z,15.20
2023-02-13T04:53:36.407Z,15.05
2023-02-13T04:56:04.965Z,15.10
2023-02-13T04:58:35.850Z,14.50
2023-02-13T05:01:04.219Z,16.25
2023-02-13T05:03:32.387Z,12.90
2023-02-13T05:06:00.635Z,16.52
2023-02-13T05:08:28.880Z,15.80
2023-02-13T05:10:57.353Z,15.23
2023-02-13T05:13:25.743Z,18.95
2023-02-13T05:15:58.408Z,16.73
2023-02-13T05:18:26.720Z,15.82
2023-02-13T05:21:12.059Z,15.25
2023-02-13T05:23:40.224Z,16.77
2023-02-13T05:26:11.499Z,12.23
2023-02-13T05:28:56.917Z,17.67
2023-02-13T05:31:26.660Z,15.07
2023-02-13T05:33:54.927Z,15.63
2023-02-13T05:36:23.132Z,13.10
2023-02-13T05:38:51.416Z,14.43
2023-02-13T05:41:19.655Z,15.23
2023-02-13T05:43:48.047Z,18.75
2023-02-13T05:46:16.871Z,20.23
2023-02-13T05:48:46.582Z,20.83
2023-02-13T05:51:14.834Z,16.17
2023-02-13T05:53:43.068Z,14.45
2023-02-13T05:56:11.294Z,14.38
2023-02-13T05:58:39.560Z,15.38
2023-02-13T06:01:07.731Z,13.95
2023-02-13T06:03:35.939Z,16.50
2023-02-13T06:06:06.061Z,14.38
2023-02-13T06:08:34.255Z,12.93
2023-02-13T06:11:02.707Z,14.23
2023-02-13T06:13:31.493Z,13.90
2023-02-13T06:15:59.862Z,13.82
2023-02-13T06:18:28.099Z,12.65
2023-02-13T06:20:56.539Z,15.77
2023-02-13T06:23:26.465Z,14.27
2023-02-13T06:25:54.701Z,14.05
2023-02-13T06:28:23.058Z,14.00
2023-02-13T06:30:51.368Z,15.45
2023-02-13T06:33:19.810Z,11.88
2023-02-13T06:35:47.989Z,14.85
2023-02-13T06:38:19.037Z,17.35
2023-02-13T06:40:49.459Z,11.85
2023-02-13T06:43:19.020Z,15.88
2023-02-13T06:45:48.086Z,12.95
2023-02-13T06:48:16.414Z,13.73
2023-02-13T06:50:44.567Z,12.10
2023-02-13T06:53:12.864Z,16.55
2023-02-13T06:55:41.186Z,11.90
2023-02-13T06:58:11.093Z,15.77
2023-02-13T07:00:39.298Z,14.32
2023-02-13T07:03:08.212Z,38.17
2023-02-13T07:05:36.517Z,16.13
2023-02-13T07:08:06.172Z,30.60
2023-02-13T07:10:34.388Z,16.52
2023-02-13T07:13:05.964Z,10.38
2023-02-13T07:15:39.630Z,23.13
2023-02-13T07:20:37.005Z,30.35
2023-02-13T07:23:07.104Z,20.08
2023-02-13T07:25:35.330Z,9.70
2023-02-13T07:28:04.774Z,8.23
2023-02-13T07:30:33.409Z,8.10
2023-02-13T07:33:04.287Z,8.52
2023-02-13T07:35:33.023Z,7.70
2023-02-13T07:38:02.756Z,8.00
2023-02-13T07:40:31.085Z,6.60
2023-02-13T07:43:02.168Z,5.88
2023-02-13T07:45:30.523Z,5.88
2023-02-13T07:47:59.834Z,8.35
2023-02-13T07:50:29.725Z,9.43
2023-02-13T07:52:59.614Z,11.70
2023-02-13T07:55:28.304Z,10.15
2023-02-13T07:57:57.117Z,9.23
2023-02-13T08:00:25.432Z,9.07
2023-02-13T08:02:53.820Z,10.10
2023-02-13T08:05:22.144Z,11.70
2023-02-13T08:07:54.476Z,13.43
2023-02-13T08:10:40.498Z,10.68
2023-02-13T08:13:10.110Z,12.45
2023-02-13T08:15:38.298Z,13.13
2023-02-13T08:18:06.720Z,12.40
2023-02-13T08:20:34.954Z,12.10
2023-02-13T08:23:10.582Z,12.35
2023-02-13T08:25:39.494Z,12.25
2023-02-13T08:28:07.737Z,11.85
2023-02-13T08:30:35.967Z,12.48
2023-02-13T08:33:04.215Z,10.52
2023-02-13T08:35:32.455Z,10.23
2023-02-13T08:38:03.973Z,10.07
2023-02-13T08:40:34.126Z,9.48
2023-02-13T08:43:03.131Z,11.82
2023-02-13T08:45:31.963Z,9.63
2023-02-13T08:48:00.653Z,9.85
2023-02-13T08:50:29.445Z,9.13
2023-02-13T08:52:58.973Z,9.10
2023-02-13T08:55:28.064Z,7.80
2023-02-13T08:58:00.241Z,6.80
2023-02-13T09:00:28.633Z,6.97
2023-02-13T09:02:57.137Z,7.60
2023-02-13T09:05:25.541Z,6.28
2023-02-13T09:07:53.818Z,26.05
2023-02-13T09:10:22.178Z,17.52
2023-02-13T09:12:54.124Z,55.40
2023-02-13T09:15:23.867Z,66.80
2023-02-13T09:17:52.066Z,19.75
2023-02-13T09:20:20.767Z,9.52
2023-02-13T09:22:49.077Z,7.93
2023-02-13T09:25:17.579Z,11.60
2023-02-13T09:27:45.851Z,6.57
2023-02-13T09:30:23.136Z,5.78
2023-02-13T09:32:53.202Z,5.75
2023-02-13T09:35:22.519Z,4.43
2023-02-13T09:37:50.747Z,4.70
2023-02-13T09:40:23.840Z,4.13
2023-02-13T09:45:23.516Z,4.85
2023-02-13T09:47:53.253Z,5.57
2023-02-13T09:50:27.950Z,5.50
2023-02-13T09:52:58.072Z,7.63
2023-02-13T09:55:31.336Z,5.50
2023-02-13T09:58:04.316Z,5.93
2023-02-13T10:00:35.726Z,5.63
2023-02-13T10:03:29.077Z,5.55
2023-02-13T10:06:07.738Z,7.80
2023-02-13T10:09:05.467Z,5.22
2023-02-13T10:11:53.662Z,6.00
2023-02-13T10:14:28.300Z,11.25
2023-02-13T10:17:01.602Z,5.18
2023-02-13T10:19:41.300Z,5.63
2023-02-13T10:22:17.361Z,7.95
2023-02-13T10:24:49.315Z,8.40
2023-02-13T10:27:24.037Z,4.80
2023-02-13T10:30:06.815Z,6.07
2023-02-13T10:32:47.596Z,4.78
2023-02-13T10:35:25.780Z,6.80
2023-02-13T10:37:57.377Z,5.30
2023-02-13T10:40:32.687Z,13.52
2023-02-13T10:43:08.722Z,8.55
2023-02-13T10:45:57.240Z,5.63
2023-02-13T10:48:42.152Z,4.93
2023-02-13T10:51:17.952Z,9.80
2023-02-13T10:54:00.414Z,6.65
2023-02-13T10:56:34.538Z,6.77
2023-02-13T10:59:15.248Z,5.53
2023-02-13T11:01:51.715Z,5.63
2023-02-13T11:04:21.001Z,4.45
2023-02-13T11:06:57.139Z,4.28
2023-02-13T11:09:26.066Z,5.57
2023-02-13T11:11:54.906Z,3.88
2023-02-13T11:14:26.212Z,4.07
2023-02-13T11:17:01.061Z,4.22
2023-02-13T11:19:33.617Z,4.88
2023-02-13T11:22:06.969Z,4.65
2023-02-13T11:24:36.041Z,9.70
2023-02-13T11:27:09.368Z,3.83
2023-02-13T11:29:39.086Z,4.57
2023-02-13T11:32:21.614Z,4.18
2023-02-13T11:34:51.953Z,3.78
2023-02-13T11:37:28.438Z,4.05
2023-02-13T11:39:58.469Z,4.95
2023-02-13T11:42:30.533Z,3.67
2023-02-13T11:45:02.787Z,4.57
2023-02-13T11:47:40.190Z,3.90
2023-02-13T11:50:22.486Z,3.90
2023-02-13T11:53:01.612Z,3.43
2023-02-13T11:55:33.523Z,4.75
2023-02-13T11:58:05.029Z,4.03
2023-02-13T12:00:40.027Z,3.72
2023-02-13T12:03:28.325Z,5.22
2023-02-13T12:06:05.912Z,3.42
2023-02-13T12:08:37.587Z,4.13
2023-02-13T12:11:15.760Z,3.33
2023-02-13T12:13:44.368Z,3.33
2023-02-13T12:16:21.810Z,4.35
2023-02-13T12:18:54.124Z,4.10
2023-02-13T12:21:35.246Z,4.65
2023-02-13T12:24:15.512Z,3.53
2023-02-13T12:26:46.477Z,3.30
2023-02-13T12:29:37.888Z,8.70
2023-02-13T12:32:20.368Z,3.15
2023-02-13T12:35:20.907Z,3.45
2023-02-13T12:38:03.342Z,4.05
2023-02-13T12:41:05.441Z,4.00
2023-02-13T12:44:02.249Z,3.28
2023-02-13T12:46:35.672Z,3.80
2023-02-13T12:49:18.455Z,4.03
2023-02-13T12:51:56.371Z,3.00
2023-02-13T12:54:41.338Z,8.05
2023-02-13T12:57:36.057Z,3.10
2023-02-13T13:00:34.941Z,3.47
2023-02-13T13:03:25.472Z,6.13
2023-02-13T13:06:11.642Z,5.72
2023-02-13T13:09:06.770Z,2.95
2023-02-13T13:12:04.310Z,3.05
2023-02-13T13:14:44.442Z,3.53
2023-02-13T13:17:21.692Z,6.47
2023-02-13T13:19:55.338Z,2.70
2023-02-13T13:22:30.486Z,3.20
2023-02-13T13:25:12.693Z,4.10
2023-02-13T13:27:45.997Z,3.33
2023-02-13T13:30:22.945Z,2.45
2023-02-13T13:32:55.675Z,3.05
2023-02-13T13:35:24.114Z,4.03
2023-02-13T13:38:02.640Z,3.53
2023-02-13T13:40:43.662Z,3.80
2023-02-13T13:43:22.853Z,2.90
2023-02-13T13:46:06.950Z,3.10
2023-02-13T13:49:01.657Z,3.75
2023-02-13T13:51:30.693Z,3.58
2023-02-13T13:54:25.046Z,3.80
2023-02-13T13:57:15.358Z,3.63
2023-02-13T14:00:24.303Z,5.15
2023-02-13T14:03:24.424Z,5.05
2023-02-13T14:06:01.788Z,3.60
2023-02-13T14:08:56.733Z,10.88
2023-02-13T14:11:41.039Z,4.30
2023-02-13T14:14:53.171Z,3.72
2023-02-13T14:17:56.561Z,6.78
2023-02-13T14:20:50.827Z,4.25
2023-02-13T14:23:27.881Z,4.88
2023-02-13T14:26:21.037Z,14.63
2023-02-13T14:29:15.123Z,6.07
2023-02-13T14:31:45.922Z,2.47
2023-02-13T14:34:30.690Z,6.05
2023-02-13T14:37:30.007Z,4.55
2023-02-13T14:40:34.679Z,6.93
2023-02-13T14:43:22.212Z,4.68
2023-02-13T14:45:55.591Z,4.43
2023-02-13T14:48:35.294Z,4.70
2023-02-13T14:51:06.382Z,4.20
2023-02-13T14:53:47.694Z,3.17
2023-02-13T14:56:19.269Z,5.32
2023-02-13T14:58:52.214Z,55.28
2023-02-13T15:01:29.262Z,71.40
2023-02-13T15:04:05.685Z,32.25
2023-02-13T15:06:39.503Z,354.38
2023-02-13T15:09:21.131Z,152.60
2023-02-13T15:11:49.565Z,40.38
2023-02-13T15:14:33.530Z,14.55
2023-02-13T15:17:08.318Z,9.40
2023-02-13T15:19:40.643Z,6.68
2023-02-13T15:22:21.056Z,5.07
2023-02-13T15:24:50.907Z,4.63
2023-02-13T15:27:23.054Z,7.90
2023-02-13T15:30:00.953Z,3.85
2023-02-13T15:32:36.841Z,4.53
2023-02-13T15:35:22.591Z,2.97
2023-02-13T15:37:52.382Z,4.50
2023-02-13T15:40:28.817Z,3.72
2023-02-13T15:42:58.130Z,4.65
2023-02-13T15:45:28.223Z,2.80
2023-02-13T15:47:58.083Z,2.67
2023-02-13T15:50:32.459Z,3.75
2023-02-13T15:53:05.690Z,4.78
2023-02-13T15:55:36.648Z,4.97
2023-02-13T15:58:05.514Z,3.38
2023-02-13T16:00:37.795Z,8.20
2023-02-13T16:03:09.369Z,6.13
2023-02-13T16:05:41.794Z,9.35
2023-02-13T16:08:43.879Z,6.30
2023-02-13T16:11:21.750Z,8.07
2023-02-13T16:14:05.907Z,7.57
2023-02-13T16:16:37.833Z,5.07
2023-02-13T16:19:06.374Z,7.55
2023-02-13T16:21:35.962Z,4.80
2023-02-13T16:24:09.034Z,11.25
2023-02-13T16:26:39.264Z,6.13
2023-02-13T16:29:11.755Z,5.95
2023-02-13T16:31:41.828Z,5.30
2023-02-13T16:34:23.232Z,4.75
2023-02-13T16:36:51.436Z,8.05
2023-02-13T16:39:24.502Z,3.47
2023-02-13T16:41:53.232Z,3.75
2023-02-13T16:44:27.356Z,4.35
2023-02-13T16:46:57.691Z,3.22
2023-02-13T16:49:28.973Z,4.40
2023-02-13T16:52:00.971Z,4.22
2023-02-13T16:54:35.334Z,4.53
2023-02-13T16:57:07.255Z,4.57
2023-02-13T16:59:55.493Z,10.98
2023-02-13T17:02:25.896Z,4.72
2023-02-13T17:04:56.261Z,4.43
2023-02-13T17:07:27.228Z,2.50
2023-02-13T17:09:59.063Z,4.43
2023-02-13T17:12:28.513Z,5.10
2023-02-13T17:14:59.294Z,4.15
2023-02-13T17:17:29.912Z,3.45
2023-02-13T17:19:58.308Z,3.53
2023-02-13T17:22:34.956Z,3.00
2023-02-13T17:25:07.444Z,3.22
2023-02-13T17:27:36.280Z,3.07
2023-02-13T17:30:05.258Z,5.78
2023-02-13T17:32:36.246Z,4.40
2023-02-13T17:35:04.580Z,4.43
2023-02-13T17:37:34.216Z,3.85
2023-02-13T17:40:02.409Z,9.32
2023-02-13T17:42:32.146Z,11.77
2023-02-13T17:45:00.570Z,10.68
2023-02-13T17:47:30.316Z,9.32
2023-02-13T17:50:08.956Z,10.02
2023-02-13T17:52:38.031Z,9.20
2023-02-13T17:55:07.519Z,9.05
2023-02-13T17:57:37.122Z,4.57
2023-02-13T18:00:06.030Z,3.90
2023-02-13T18:02:34.446Z,5.07
2023-02-13T18:05:02.714Z,4.50
2023-02-13T18:07:30.903Z,5.53
2023-02-13T18:09:59.139Z,4.22
2023-02-13T18:12:27.426Z,11.43
2023-02-13T18:14:57.038Z,9.85
2023-02-13T18:17:25.257Z,7.93
2023-02-13T18:19:53.448Z,5.28
2023-02-13T18:22:21.713Z,5.72
2023-02-13T18:24:50.101Z,5.55
2023-02-13T18:27:19.089Z,4.47
2023-02-13T18:29:47.399Z,3.60
2023-02-13T18:32:17.085Z,5.70
2023-02-13T18:34:46.667Z,11.57
2023-02-13T18:37:15.335Z,4.65
2023-02-13T18:39:43.569Z,5.82
2023-02-13T18:42:13.211Z,75.15
2023-02-13T18:44:41.692Z,23.02
2023-02-13T18:47:10.025Z,413.52
2023-02-13T18:49:40.688Z,113.50
2023-02-13T18:52:08.872Z,106.45
2023-02-13T18:54:37.885Z,143.07
2023-02-13T18:57:06.247Z,358.35
2023-02-13T18:59:34.475Z,566.88
2023-02-13T19:02:04.257Z,197.57
2023-02-13T19:04:35.152Z,148.55
2023-02-13T19:07:04.861Z,182.65
2023-02-13T19:09:33.078Z,466.90
2023-02-13T19:12:01.265Z,197.10
2023-02-13T19:14:30.716Z,85.70
2023-02-13T19:16:58.905Z,32.83
2023-02-13T19:19:27.117Z,18.25
2023-02-13T19:21:55.281Z,12.13
2023-02-13T19:24:24.838Z,7.20
2023-02-13T19:26:53.100Z,6.45
2023-02-13T19:29:21.293Z,7.90
2023-02-13T19:31:49.629Z,5.57
2023-02-13T19:34:17.871Z,6.30
2023-02-13T19:36:46.112Z,7.65
2023-02-13T19:39:14.312Z,9.45
2023-02-13T19:41:44.634Z,8.57
2023-02-13T19:44:13.105Z,9.27
2023-02-13T19:46:41.328Z,4.88
2023-02-13T19:49:10.012Z,5.97
2023-02-13T19:51:38.258Z,8.25
2023-02-13T19:54:08.025Z,6.25
2023-02-13T19:56:39.113Z,6.28
2023-02-13T19:59:12.315Z,6.85
2023-02-13T20:04:11.827Z,8.80
2023-02-13T20:06:43.013Z,6.70
2023-02-13T20:09:13.424Z,10.88
2023-02-13T20:11:43.370Z,5.75
2023-02-13T20:14:15.052Z,6.45
2023-02-13T20:16:45.586Z,6.18
2023-02-13T20:19:14.341Z,6.55
2023-02-13T20:21:43.578Z,7.22
2023-02-13T20:24:12.769Z,5.68
2023-02-13T20:26:41.265Z,9.57
2023-02-13T20:29:10.541Z,26.65
2023-02-13T20:31:41.537Z,24.10
2023-02-13T20:34:10.892Z,10.18
2023-02-13T20:36:39.390Z,13.15
2023-02-13T20:39:08.808Z,41.60
2023-02-13T20:41:38.631Z,23.60
2023-02-13T20:44:08.520Z,21.40
2023-02-13T20:46:39.928Z,17.52
2023-02-13T20:49:08.787Z,21.98
2023-02-13T20:51:37.217Z,11.85
2023-02-13T20:54:06.062Z,9.88
2023-02-13T20:56:34.269Z,12.50
2023-02-13T20:59:03.313Z,13.75
2023-02-13T21:01:33.399Z,11.88
2023-02-13T21:04:03.188Z,14.27
2023-02-13T21:06:33.108Z,13.07
2023-02-13T21:09:01.558Z,17.63
2023-02-13T21:11:30.140Z,13.68
2023-02-13T21:13:59.061Z,16.15
2023-02-13T21:16:29.547Z,16.55
2023-02-13T21:19:00.443Z,16.92
2023-02-13T21:21:32.667Z,15.63
2023-02-13T21:24:03.418Z,16.90
2023-02-13T21:26:32.347Z,13.95
2023-02-13T21:29:00.815Z,18.40
2023-02-13T21:31:31.813Z,18.90
2023-02-13T21:34:00.899Z,13.57
2023-02-13T21:36:31.057Z,14.18
2023-02-13T21:38:59.382Z,10.75
2023-02-13T21:41:27.928Z,13.02
2023-02-13T21:43:56.279Z,11.52
2023-02-13T21:46:26.558Z,11.18
2023-02-13T21:48:55.864Z,15.10
2023-02-13T21:51:25.462Z,16.15
2023-02-13T21:53:56.149Z,16.63
2023-02-13T21:56:25.927Z,15.27
2023-02-13T21:58:54.779Z,15.80
2023-02-13T22:01:27.328Z,12.40
2023-02-13T22:03:59.838Z,13.98
2023-02-13T22:06:29.781Z,14.52
2023-02-13T22:09:02.132Z,14.88
2023-02-13T22:11:31.222Z,13.43
2023-02-13T22:14:02.510Z,9.93
2023-02-13T22:16:31.380Z,11.60
2023-02-13T22:19:00.186Z,8.50
2023-02-13T22:21:30.091Z,9.45
2023-02-13T22:23:59.982Z,8.23
2023-02-13T22:26:29.783Z,10.85
2023-02-13T22:29:01.299Z,8.07
2023-02-13T22:31:30.125Z,10.75
2023-02-13T22:34:03.966Z,9.98
2023-02-13T22:36:33.490Z,11.30
2023-02-13T22:39:03.080Z,10.75
2023-02-13T22:41:31.313Z,10.88
2023-02-13T22:43:59.657Z,10.40
2023-02-13T22:46:29.939Z,10.77
2023-02-13T22:48:59.035Z,11.85
2023-02-13T22:51:30.308Z,10.63
2023-02-13T22:53:59.397Z,10.50
2023-02-13T22:56:30.992Z,9.57
2023-02-13T22:58:59.530Z,12.32
2023-02-13T23:01:29.174Z,10.98
2023-02-13T23:03:58.101Z,11.02
2023-02-13T23:06:27.016Z,13.52
2023-02-13T23:08:55.567Z,10.38
2023-02-13T23:11:43.955Z,9.65
2023-02-13T23:14:13.989Z,12.32
2023-02-13T23:17:00.862Z,12.05
2023-02-13T23:19:30.368Z,13.00
2023-02-13T23:21:58.793Z,12.07
2023-02-13T23:24:27.273Z,11.93
2023-02-13T23:26:55.637Z,15.70
2023-02-13T23:29:25.305Z,14.93
2023-02-13T23:31:54.326Z,14.23
2023-02-13T23:34:22.938Z,13.43
2023-02-13T23:36:51.322Z,13.27
2023-02-13T23:39:19.939Z,14.48
2023-02-13T23:41:48.150Z,11.57
2023-02-13T23:44:16.350Z,13.80
2023-02-13T23:46:46.299Z,13.38
2023-02-13T23:49:14.600Z,15.70
2023-02-13T23:51:42.854Z,15.45
2023-02-13T23:54:15.718Z,16.38
2023-02-13T23:56:44.056Z,14.05
2023-02-13T23:59:12.416Z,14.32
